sensor_id;sensor_type;location;lat;lon;timestamp;pressure;altitude;pressure_sealevel;temperature;humidity
57050;BME280;42935;50.966;16.992;2022-12-18T00:01:30;103211.88;;;-6.43;100.00
57050;BME280;42935;50.966;16.992;2022-12-18T00:04:37;103221.45;;;-6.31;100.00
57050;BME280;42935;50.966;16.992;2022-12-18T00:07:44;103212.70;;;-6.38;100.00
57050;BME280;42935;50.966;16.992;2022-12-18T00:10:48;103214.91;;;-6.39;100.00
57050;BME280;42935;50.966;16.992;2022-12-18T00:14:00;103161.38;;;-6.81;100.00
57050;BME280;42935;50.966;16.992;2022-12-18T00:17:05;103216.00;;;-6.41;100.00
57050;BME280;42935;50.966;16.992;2022-12-18T00:20:10;103215.67;;;-6.26;100.00
57050;BME280;42935;50.966;16.992;2022-12-18T00:23:16;103222.79;;;-6.29;100.00
57050;BME280;42935;50.966;16.992;2022-12-18T00:26:28;103215.66;;;-6.50;100.00
57050;BME280;42935;50.966;16.992;2022-12-18T00:29:38;103240.41;;;-6.44;100.00
57050;BME280;42935;50.966;16.992;2022-12-18T00:32:44;103233.64;;;-6.45;100.00
57050;BME280;42935;50.966;16.992;2022-12-18T00:35:59;103246.13;;;-6.41;100.00
57050;BME280;42935;50.966;16.992;2022-12-18T00:39:05;103244.77;;;-6.30;100.00
57050;BME280;42935;50.966;16.992;2022-12-18T00:42:10;103247.57;;;-6.30;100.00
57050;BME280;42935;50.966;16.992;2022-12-18T00:45:28;103239.52;;;-6.33;100.00
57050;BME280;42935;50.966;16.992;2022-12-18T00:48:36;103245.80;;;-6.35;100.00
57050;BME280;42935;50.966;16.992;2022-12-18T00:51:43;103250.09;;;-6.24;100.00
57050;BME280;42935;50.966;16.992;2022-12-18T00:54:50;103258.64;;;-6.39;100.00
57050;BME280;42935;50.966;16.992;2022-12-18T00:57:58;103287.35;;;-6.46;100.00
57050;BME280;42935;50.966;16.992;2022-12-18T01:01:04;103288.30;;;-6.40;100.00
57050;BME280;42935;50.966;16.992;2022-12-18T01:04:18;103293.04;;;-6.50;100.00
57050;BME280;42935;50.966;16.992;2022-12-18T01:07:24;103300.35;;;-6.48;100.00
57050;BME280;42935;50.966;16.992;2022-12-18T01:10:30;103303.66;;;-6.41;100.00
57050;BME280;42935;50.966;16.992;2022-12-18T01:13:41;103310.45;;;-6.50;100.00
57050;BME280;42935;50.966;16.992;2022-12-18T01:16:46;103310.90;;;-6.39;100.00
57050;BME280;42935;50.966;16.992;2022-12-18T01:19:49;103314.47;;;-6.29;100.00
57050;BME280;42935;50.966;16.992;2022-12-18T01:22:52;103321.34;;;-6.41;100.00
57050;BME280;42935;50.966;16.992;2022-12-18T01:26:27;103319.57;;;-6.34;100.00
57050;BME280;42935;50.966;16.992;2022-12-18T01:29:31;103297.68;;;-6.54;100.00
57050;BME280;42935;50.966;16.992;2022-12-18T01:32:40;103325.35;;;-6.36;100.00
57050;BME280;42935;50.966;16.992;2022-12-18T01:35:45;103323.46;;;-6.39;100.00
57050;BME280;42935;50.966;16.992;2022-12-18T01:38:50;103309.66;;;-6.49;100.00
57050;BME280;42935;50.966;16.992;2022-12-18T01:41:57;103307.55;;;-6.58;100.00
57050;BME280;42935;50.966;16.992;2022-12-18T01:48:24;103320.16;;;-6.30;100.00
57050;BME280;42935;50.966;16.992;2022-12-18T01:51:29;103319.45;;;-6.30;100.00
57050;BME280;42935;50.966;16.992;2022-12-18T01:54:32;103320.09;;;-6.34;100.00
57050;BME280;42935;50.966;16.992;2022-12-18T01:57:39;103328.34;;;-6.42;100.00
57050;BME280;42935;50.966;16.992;2022-12-18T02:00:49;103329.65;;;-6.39;100.00
57050;BME280;42935;50.966;16.992;2022-12-18T02:04:21;103334.11;;;-6.39;100.00
57050;BME280;42935;50.966;16.992;2022-12-18T02:10:27;103333.50;;;-6.42;100.00
57050;BME280;42935;50.966;16.992;2022-12-18T02:17:06;103347.73;;;-6.49;100.00
57050;BME280;42935;50.966;16.992;2022-12-18T02:26:55;103356.23;;;-6.45;100.00
57050;BME280;42935;50.966;16.992;2022-12-18T02:30:02;103355.01;;;-6.51;100.00
57050;BME280;42935;50.966;16.992;2022-12-18T02:33:11;103361.39;;;-6.52;100.00
57050;BME280;42935;50.966;16.992;2022-12-18T02:36:17;103356.38;;;-6.47;100.00
57050;BME280;42935;50.966;16.992;2022-12-18T02:39:27;103361.26;;;-6.41;100.00
57050;BME280;42935;50.966;16.992;2022-12-18T02:42:33;103374.43;;;-6.33;100.00
57050;BME280;42935;50.966;16.992;2022-12-18T02:45:57;103368.97;;;-6.46;100.00
57050;BME280;42935;50.966;16.992;2022-12-18T02:49:06;103362.89;;;-6.29;100.00
57050;BME280;42935;50.966;16.992;2022-12-18T02:55:39;103370.97;;;-6.37;100.00
57050;BME280;42935;50.966;16.992;2022-12-18T02:58:55;103381.10;;;-6.41;100.00
57050;BME280;42935;50.966;16.992;2022-12-18T03:02:16;103380.86;;;-6.35;100.00
57050;BME280;42935;50.966;16.992;2022-12-18T03:05:30;103381.60;;;-6.34;100.00
57050;BME280;42935;50.966;16.992;2022-12-18T03:08:39;103372.77;;;-6.21;100.00
57050;BME280;42935;50.966;16.992;2022-12-18T03:11:54;103364.88;;;-6.40;100.00
57050;BME280;42935;50.966;16.992;2022-12-18T03:18:33;103370.64;;;-6.02;100.00
57050;BME280;42935;50.966;16.992;2022-12-18T03:21:45;103346.00;;;-5.86;100.00
57050;BME280;42935;50.966;16.992;2022-12-18T03:24:53;103371.23;;;-6.13;100.00
57050;BME280;42935;50.966;16.992;2022-12-18T03:28:01;103372.03;;;-6.13;100.00
57050;BME280;42935;50.966;16.992;2022-12-18T03:31:10;103375.60;;;-6.19;100.00
57050;BME280;42935;50.966;16.992;2022-12-18T03:34:30;103375.85;;;-6.46;100.00
57050;BME280;42935;50.966;16.992;2022-12-18T03:37:36;103379.38;;;-6.63;100.00
57050;BME280;42935;50.966;16.992;2022-12-18T03:50:38;103402.80;;;-6.35;100.00
57050;BME280;42935;50.966;16.992;2022-12-18T03:53:57;103409.42;;;-6.63;100.00
57050;BME280;42935;50.966;16.992;2022-12-18T03:57:07;103410.59;;;-6.51;100.00
57050;BME280;42935;50.966;16.992;2022-12-18T04:00:16;103405.04;;;-6.68;100.00
57050;BME280;42935;50.966;16.992;2022-12-18T04:03:21;103427.00;;;-6.46;100.00
57050;BME280;42935;50.966;16.992;2022-12-18T04:06:26;103431.38;;;-6.40;100.00
57050;BME280;42935;50.966;16.992;2022-12-18T04:09:34;103415.52;;;-6.46;100.00
57050;BME280;42935;50.966;16.992;2022-12-18T04:12:39;103419.55;;;-6.26;100.00
57050;BME280;42935;50.966;16.992;2022-12-18T04:15:43;103424.13;;;-6.00;100.00
57050;BME280;42935;50.966;16.992;2022-12-18T04:18:49;103425.69;;;-5.92;100.00
57050;BME280;42935;50.966;16.992;2022-12-18T04:21:53;103434.70;;;-6.04;100.00
57050;BME280;42935;50.966;16.992;2022-12-18T04:24:56;103430.04;;;-6.15;100.00
57050;BME280;42935;50.966;16.992;2022-12-18T04:28:03;103406.13;;;-6.32;100.00
57050;BME280;42935;50.966;16.992;2022-12-18T04:31:07;103429.39;;;-6.13;100.00
57050;BME280;42935;50.966;16.992;2022-12-18T04:34:14;103424.79;;;-6.42;100.00
57050;BME280;42935;50.966;16.992;2022-12-18T04:37:17;103434.20;;;-6.35;100.00
57050;BME280;42935;50.966;16.992;2022-12-18T04:40:21;103438.23;;;-6.25;100.00
57050;BME280;42935;50.966;16.992;2022-12-18T04:43:25;103431.48;;;-6.22;100.00
57050;BME280;42935;50.966;16.992;2022-12-18T04:46:32;103429.86;;;-6.18;100.00
57050;BME280;42935;50.966;16.992;2022-12-18T04:49:36;103433.50;;;-6.05;100.00
57050;BME280;42935;50.966;16.992;2022-12-18T04:52:40;103444.57;;;-5.99;100.00
57050;BME280;42935;50.966;16.992;2022-12-18T04:55:49;103455.30;;;-6.23;100.00
57050;BME280;42935;50.966;16.992;2022-12-18T04:59:23;103448.39;;;-6.05;100.00
57050;BME280;42935;50.966;16.992;2022-12-18T05:02:32;103467.20;;;-5.98;100.00
57050;BME280;42935;50.966;16.992;2022-12-18T05:05:35;103462.93;;;-6.10;100.00
57050;BME280;42935;50.966;16.992;2022-12-18T05:08:47;103469.44;;;-6.18;100.00
57050;BME280;42935;50.966;16.992;2022-12-18T05:11:52;103466.32;;;-6.09;100.00
57050;BME280;42935;50.966;16.992;2022-12-18T05:14:55;103475.73;;;-6.06;100.00
57050;BME280;42935;50.966;16.992;2022-12-18T05:17:59;103469.84;;;-5.90;100.00
57050;BME280;42935;50.966;16.992;2022-12-18T05:21:04;103456.46;;;-6.28;100.00
57050;BME280;42935;50.966;16.992;2022-12-18T05:24:09;103477.86;;;-6.27;100.00
57050;BME280;42935;50.966;16.992;2022-12-18T05:27:15;103477.88;;;-6.17;100.00
57050;BME280;42935;50.966;16.992;2022-12-18T05:30:22;103482.72;;;-6.03;100.00
57050;BME280;42935;50.966;16.992;2022-12-18T05:33:31;103496.70;;;-6.13;100.00
57050;BME280;42935;50.966;16.992;2022-12-18T05:36:35;103493.01;;;-6.22;100.00
57050;BME280;42935;50.966;16.992;2022-12-18T05:39:38;103498.13;;;-6.15;100.00
57050;BME280;42935;50.966;16.992;2022-12-18T05:42:42;103504.14;;;-6.25;100.00
57050;BME280;42935;50.966;16.992;2022-12-18T05:45:49;103497.81;;;-6.19;100.00
57050;BME280;42935;50.966;16.992;2022-12-18T05:48:53;103496.85;;;-6.22;100.00
57050;BME280;42935;50.966;16.992;2022-12-18T05:51:57;103504.84;;;-6.15;100.00
57050;BME280;42935;50.966;16.992;2022-12-18T05:55:02;103506.36;;;-6.11;100.00
57050;BME280;42935;50.966;16.992;2022-12-18T05:58:11;103497.59;;;-6.44;100.00
57050;BME280;42935;50.966;16.992;2022-12-18T06:01:17;103494.69;;;-6.23;100.00
57050;BME280;42935;50.966;16.992;2022-12-18T06:04:24;103505.43;;;-6.11;100.00
57050;BME280;42935;50.966;16.992;2022-12-18T06:07:30;103519.32;;;-6.10;100.00
57050;BME280;42935;50.966;16.992;2022-12-18T06:10:36;103522.84;;;-6.29;100.00
57050;BME280;42935;50.966;16.992;2022-12-18T06:13:42;103522.23;;;-6.14;100.00
57050;BME280;42935;50.966;16.992;2022-12-18T06:16:45;103519.60;;;-6.32;100.00
57050;BME280;42935;50.966;16.992;2022-12-18T06:19:48;103517.20;;;-6.37;100.00
57050;BME280;42935;50.966;16.992;2022-12-18T06:22:52;103531.02;;;-6.53;100.00
57050;BME280;42935;50.966;16.992;2022-12-18T06:25:57;103536.88;;;-6.61;100.00
57050;BME280;42935;50.966;16.992;2022-12-18T06:29:00;103543.23;;;-6.51;100.00
57050;BME280;42935;50.966;16.992;2022-12-18T06:32:04;103545.69;;;-6.58;100.00
57050;BME280;42935;50.966;16.992;2022-12-18T06:35:09;103521.84;;;-6.61;100.00
57050;BME280;42935;50.966;16.992;2022-12-18T06:38:13;103535.48;;;-6.49;100.00
57050;BME280;42935;50.966;16.992;2022-12-18T06:41:20;103550.12;;;-6.47;100.00
57050;BME280;42935;50.966;16.992;2022-12-18T06:44:24;103568.58;;;-6.53;100.00
57050;BME280;42935;50.966;16.992;2022-12-18T06:47:28;103552.80;;;-6.63;100.00
57050;BME280;42935;50.966;16.992;2022-12-18T06:50:34;103557.80;;;-6.30;100.00
57050;BME280;42935;50.966;16.992;2022-12-18T06:53:38;103563.16;;;-6.29;100.00
57050;BME280;42935;50.966;16.992;2022-12-18T06:56:47;103575.73;;;-6.36;100.00
57050;BME280;42935;50.966;16.992;2022-12-18T06:59:52;103564.24;;;-6.57;100.00
57050;BME280;42935;50.966;16.992;2022-12-18T07:02:55;103573.95;;;-6.38;100.00
57050;BME280;42935;50.966;16.992;2022-12-18T07:05:59;103552.08;;;-6.38;100.00
57050;BME280;42935;50.966;16.992;2022-12-18T07:09:04;103583.68;;;-6.27;100.00
57050;BME280;42935;50.966;16.992;2022-12-18T07:12:10;103591.25;;;-6.16;100.00
57050;BME280;42935;50.966;16.992;2022-12-18T07:15:14;103596.50;;;-6.17;100.00
57050;BME280;42935;50.966;16.992;2022-12-18T07:18:18;103604.00;;;-6.13;100.00
57050;BME280;42935;50.966;16.992;2022-12-18T07:21:23;103602.91;;;-6.19;100.00
57050;BME280;42935;50.966;16.992;2022-12-18T07:24:34;103607.07;;;-6.28;100.00
57050;BME280;42935;50.966;16.992;2022-12-18T07:27:38;103605.27;;;-6.22;100.00
57050;BME280;42935;50.966;16.992;2022-12-18T07:30:42;103592.40;;;-6.30;100.00
57050;BME280;42935;50.966;16.992;2022-12-18T07:33:47;103604.55;;;-6.18;100.00
57050;BME280;42935;50.966;16.992;2022-12-18T07:36:50;103617.70;;;-6.14;100.00
57050;BME280;42935;50.966;16.992;2022-12-18T07:39:58;103606.13;;;-6.22;100.00
57050;BME280;42935;50.966;16.992;2022-12-18T07:43:02;103633.41;;;-6.05;100.00
57050;BME280;42935;50.966;16.992;2022-12-18T07:46:06;103634.91;;;-6.02;100.00
57050;BME280;42935;50.966;16.992;2022-12-18T07:49:10;103632.79;;;-5.89;100.00
57050;BME280;42935;50.966;16.992;2022-12-18T07:52:18;103630.29;;;-6.05;100.00
57050;BME280;42935;50.966;16.992;2022-12-18T07:55:22;103636.30;;;-6.05;100.00
57050;BME280;42935;50.966;16.992;2022-12-18T07:58:29;103628.20;;;-5.80;100.00
57050;BME280;42935;50.966;16.992;2022-12-18T08:01:33;103619.32;;;-5.81;100.00
57050;BME280;42935;50.966;16.992;2022-12-18T08:04:38;103630.56;;;-5.55;100.00
57050;BME280;42935;50.966;16.992;2022-12-18T08:07:47;103629.54;;;-5.75;100.00
57050;BME280;42935;50.966;16.992;2022-12-18T08:10:55;103624.67;;;-5.88;100.00
57050;BME280;42935;50.966;16.992;2022-12-18T08:13:58;103641.76;;;-5.76;100.00
57050;BME280;42935;50.966;16.992;2022-12-18T08:17:02;103648.59;;;-5.60;100.00
57050;BME280;42935;50.966;16.992;2022-12-18T08:20:06;103650.16;;;-5.39;100.00
57050;BME280;42935;50.966;16.992;2022-12-18T08:23:10;103662.35;;;-5.53;100.00
57050;BME280;42935;50.966;16.992;2022-12-18T08:26:14;103661.02;;;-5.48;100.00
57050;BME280;42935;50.966;16.992;2022-12-18T08:29:23;103648.35;;;-5.67;100.00
57050;BME280;42935;50.966;16.992;2022-12-18T08:32:28;103665.95;;;-5.13;100.00
57050;BME280;42935;50.966;16.992;2022-12-18T08:35:35;103669.05;;;-5.24;100.00
57050;BME280;42935;50.966;16.992;2022-12-18T08:38:39;103666.45;;;-5.18;100.00
57050;BME280;42935;50.966;16.992;2022-12-18T08:41:46;103664.09;;;-5.18;100.00
57050;BME280;42935;50.966;16.992;2022-12-18T08:45:02;103673.59;;;-5.17;100.00
57050;BME280;42935;50.966;16.992;2022-12-18T08:48:05;103676.11;;;-5.08;100.00
57050;BME280;42935;50.966;16.992;2022-12-18T08:51:10;103677.80;;;-4.85;100.00
57050;BME280;42935;50.966;16.992;2022-12-18T08:54:14;103683.77;;;-5.02;100.00
57050;BME280;42935;50.966;16.992;2022-12-18T08:57:21;103683.47;;;-5.12;100.00
57050;BME280;42935;50.966;16.992;2022-12-18T09:00:27;103676.98;;;-5.17;100.00
57050;BME280;42935;50.966;16.992;2022-12-18T09:03:36;103689.84;;;-5.30;100.00
57050;BME280;42935;50.966;16.992;2022-12-18T09:06:40;103684.83;;;-4.96;100.00
57050;BME280;42935;50.966;16.992;2022-12-18T09:09:44;103676.16;;;-4.91;100.00
57050;BME280;42935;50.966;16.992;2022-12-18T09:12:56;103676.12;;;-5.09;100.00
57050;BME280;42935;50.966;16.992;2022-12-18T09:16:03;103661.18;;;-5.12;100.00
57050;BME280;42935;50.966;16.992;2022-12-18T09:19:10;103648.11;;;-5.09;100.00
57050;BME280;42935;50.966;16.992;2022-12-18T09:22:14;103652.33;;;-5.04;100.00
57050;BME280;42935;50.966;16.992;2022-12-18T09:25:19;103647.59;;;-4.94;100.00
57050;BME280;42935;50.966;16.992;2022-12-18T09:28:26;103650.50;;;-5.47;100.00
57050;BME280;42935;50.966;16.992;2022-12-18T09:31:36;103641.42;;;-5.13;100.00
57050;BME280;42935;50.966;16.992;2022-12-18T09:34:44;103626.00;;;-5.51;100.00
57050;BME280;42935;50.966;16.992;2022-12-18T09:37:52;103622.52;;;-5.58;100.00
57050;BME280;42935;50.966;16.992;2022-12-18T09:44:22;103613.98;;;-5.12;100.00
57050;BME280;42935;50.966;16.992;2022-12-18T09:47:36;103613.88;;;-4.91;100.00
57050;BME280;42935;50.966;16.992;2022-12-18T09:50:48;103624.80;;;-4.94;100.00
57050;BME280;42935;50.966;16.992;2022-12-18T09:54:00;103628.11;;;-5.42;100.00
57050;BME280;42935;50.966;16.992;2022-12-18T09:57:17;103636.94;;;-5.30;100.00
57050;BME280;42935;50.966;16.992;2022-12-18T10:00:23;103627.77;;;-5.43;100.00
57050;BME280;42935;50.966;16.992;2022-12-18T10:03:34;103628.95;;;-5.19;100.00
57050;BME280;42935;50.966;16.992;2022-12-18T10:10:10;103622.70;;;-5.08;100.00
57050;BME280;42935;50.966;16.992;2022-12-18T10:13:27;103636.20;;;-4.87;100.00
57050;BME280;42935;50.966;16.992;2022-12-18T10:20:05;103641.76;;;-5.19;100.00
57050;BME280;42935;50.966;16.992;2022-12-18T10:26:36;103632.41;;;-5.18;100.00
57050;BME280;42935;50.966;16.992;2022-12-18T10:29:48;103635.11;;;-5.00;100.00
57050;BME280;42935;50.966;16.992;2022-12-18T10:33:00;103634.72;;;-4.78;100.00
57050;BME280;42935;50.966;16.992;2022-12-18T10:36:07;103636.87;;;-4.58;100.00
57050;BME280;42935;50.966;16.992;2022-12-18T10:39:21;103639.11;;;-4.97;100.00
57050;BME280;42935;50.966;16.992;2022-12-18T10:42:40;103647.85;;;-5.29;100.00
57050;BME280;42935;50.966;16.992;2022-12-18T10:52:23;103633.29;;;-5.25;100.00
57050;BME280;42935;50.966;16.992;2022-12-18T10:55:38;103623.01;;;-5.26;100.00
57050;BME280;42935;50.966;16.992;2022-12-18T10:58:58;103635.01;;;-5.14;100.00
57050;BME280;42935;50.966;16.992;2022-12-18T11:05:32;103628.50;;;-5.29;100.00
57050;BME280;42935;50.966;16.992;2022-12-18T11:08:56;103646.63;;;-5.32;100.00
57050;BME280;42935;50.966;16.992;2022-12-18T11:12:04;103641.26;;;-5.37;100.00
57050;BME280;42935;50.966;16.992;2022-12-18T11:15:13;103650.71;;;-5.12;100.00
57050;BME280;42935;50.966;16.992;2022-12-18T11:18:30;103652.49;;;-5.68;100.00
57050;BME280;42935;50.966;16.992;2022-12-18T11:21:40;103668.18;;;-5.68;100.00
57050;BME280;42935;50.966;16.992;2022-12-18T11:34:33;103666.98;;;-4.59;100.00
57050;BME280;42935;50.966;16.992;2022-12-18T11:37:43;103665.00;;;-4.34;100.00
57050;BME280;42935;50.966;16.992;2022-12-18T11:41:01;103667.02;;;-4.34;100.00
57050;BME280;42935;50.966;16.992;2022-12-18T11:44:09;103644.69;;;-4.45;100.00
57050;BME280;42935;50.966;16.992;2022-12-18T11:53:46;103636.20;;;-5.02;100.00
57050;BME280;42935;50.966;16.992;2022-12-18T12:00:16;103632.98;;;-5.17;100.00
57050;BME280;42935;50.966;16.992;2022-12-18T12:37:23;103624.82;;;-5.49;100.00
57050;BME280;42935;50.966;16.992;2022-12-18T12:40:36;103620.20;;;-5.34;100.00
57050;BME280;42935;50.966;16.992;2022-12-18T12:43:45;103624.56;;;-5.40;100.00
57050;BME280;42935;50.966;16.992;2022-12-18T12:47:00;103623.56;;;-5.32;100.00
57050;BME280;42935;50.966;16.992;2022-12-18T12:50:18;103617.59;;;-5.59;100.00
57050;BME280;42935;50.966;16.992;2022-12-18T12:53:36;103615.67;;;-5.78;100.00
57050;BME280;42935;50.966;16.992;2022-12-18T12:56:57;103625.73;;;-5.83;100.00
57050;BME280;42935;50.966;16.992;2022-12-18T13:00:10;103620.52;;;-5.84;100.00
57050;BME280;42935;50.966;16.992;2022-12-18T13:03:31;103627.69;;;-5.87;100.00
57050;BME280;42935;50.966;16.992;2022-12-18T13:06:52;103630.69;;;-6.04;100.00
57050;BME280;42935;50.966;16.992;2022-12-18T13:13:16;103634.70;;;-5.37;100.00
57050;BME280;42935;50.966;16.992;2022-12-18T13:16:24;103629.76;;;-5.80;100.00
57050;BME280;42935;50.966;16.992;2022-12-18T13:19:33;103615.02;;;-6.09;100.00
57050;BME280;42935;50.966;16.992;2022-12-18T13:22:47;103633.07;;;-6.18;100.00
57050;BME280;42935;50.966;16.992;2022-12-18T13:32:46;103625.93;;;-6.19;100.00
57050;BME280;42935;50.966;16.992;2022-12-18T13:39:25;103639.08;;;-6.26;100.00
57050;BME280;42935;50.966;16.992;2022-12-18T13:42:38;103636.42;;;-6.28;100.00
57050;BME280;42935;50.966;16.992;2022-12-18T13:46:05;103637.41;;;-6.28;100.00
57050;BME280;42935;50.966;16.992;2022-12-18T13:52:39;103650.73;;;-6.53;100.00
57050;BME280;42935;50.966;16.992;2022-12-18T13:55:45;103661.68;;;-6.52;100.00
57050;BME280;42935;50.966;16.992;2022-12-18T14:02:15;103653.25;;;-6.45;100.00
57050;BME280;42935;50.966;16.992;2022-12-18T14:05:35;103667.37;;;-6.64;100.00
57050;BME280;42935;50.966;16.992;2022-12-18T14:08:46;103661.90;;;-6.76;100.00
57050;BME280;42935;50.966;16.992;2022-12-18T14:11:58;103672.90;;;-6.81;100.00
57050;BME280;42935;50.966;16.992;2022-12-18T14:21:50;103694.55;;;-6.80;100.00
57050;BME280;42935;50.966;16.992;2022-12-18T14:25:06;103693.19;;;-6.93;100.00
57050;BME280;42935;50.966;16.992;2022-12-18T14:28:20;103705.34;;;-7.00;100.00
57050;BME280;42935;50.966;16.992;2022-12-18T14:31:36;103711.88;;;-7.16;100.00
57050;BME280;42935;50.966;16.992;2022-12-18T14:34:52;103706.73;;;-7.28;100.00
57050;BME280;42935;50.966;16.992;2022-12-18T14:41:18;103706.34;;;-7.31;100.00
57050;BME280;42935;50.966;16.992;2022-12-18T14:44:25;103709.30;;;-7.19;100.00
57050;BME280;42935;50.966;16.992;2022-12-18T14:47:47;103707.36;;;-7.25;100.00
57050;BME280;42935;50.966;16.992;2022-12-18T14:51:13;103706.71;;;-7.31;100.00
57050;BME280;42935;50.966;16.992;2022-12-18T14:57:25;103707.29;;;-7.47;100.00
57050;BME280;42935;50.966;16.992;2022-12-18T15:00:32;103716.50;;;-7.43;100.00
57050;BME280;42935;50.966;16.992;2022-12-18T15:03:36;103705.91;;;-7.51;100.00
57050;BME280;42935;50.966;16.992;2022-12-18T15:06:46;103708.58;;;-7.56;100.00
57050;BME280;42935;50.966;16.992;2022-12-18T15:10:02;103698.70;;;-7.66;100.00
57050;BME280;42935;50.966;16.992;2022-12-18T15:13:17;103693.88;;;-7.73;100.00
57050;BME280;42935;50.966;16.992;2022-12-18T15:16:21;103691.05;;;-7.85;100.00
57050;BME280;42935;50.966;16.992;2022-12-18T15:22:48;103693.32;;;-7.94;100.00
57050;BME280;42935;50.966;16.992;2022-12-18T15:26:03;103693.27;;;-7.92;100.00
57050;BME280;42935;50.966;16.992;2022-12-18T15:29:20;103710.56;;;-7.95;100.00
57050;BME280;42935;50.966;16.992;2022-12-18T15:32:25;103697.41;;;-8.00;100.00
57050;BME280;42935;50.966;16.992;2022-12-18T15:35:36;103702.80;;;-7.99;100.00
57050;BME280;42935;50.966;16.992;2022-12-18T15:38:40;103703.67;;;-7.99;100.00
57050;BME280;42935;50.966;16.992;2022-12-18T15:41:45;103707.99;;;-7.98;100.00
57050;BME280;42935;50.966;16.992;2022-12-18T15:45:12;103676.30;;;-8.14;100.00
57050;BME280;42935;50.966;16.992;2022-12-18T15:48:22;103652.23;;;-8.33;100.00
57050;BME280;42935;50.966;16.992;2022-12-18T15:51:33;103675.02;;;-8.34;100.00
57050;BME280;42935;50.966;16.992;2022-12-18T15:54:42;103681.10;;;-8.37;100.00
57050;BME280;42935;50.966;16.992;2022-12-18T15:58:01;103680.05;;;-8.41;100.00
57050;BME280;42935;50.966;16.992;2022-12-18T16:01:05;103665.52;;;-8.53;100.00
57050;BME280;42935;50.966;16.992;2022-12-18T16:04:14;103677.64;;;-8.50;100.00
57050;BME280;42935;50.966;16.992;2022-12-18T16:07:21;103677.41;;;-8.68;100.00
57050;BME280;42935;50.966;16.992;2022-12-18T16:10:26;103665.59;;;-8.89;100.00
57050;BME280;42935;50.966;16.992;2022-12-18T16:13:30;103671.36;;;-8.93;100.00
57050;BME280;42935;50.966;16.992;2022-12-18T16:16:38;103671.30;;;-9.16;100.00
57050;BME280;42935;50.966;16.992;2022-12-18T16:19:45;103674.82;;;-9.21;100.00
57050;BME280;42935;50.966;16.992;2022-12-18T16:22:51;103668.45;;;-9.25;100.00
57050;BME280;42935;50.966;16.992;2022-12-18T16:26:01;103665.80;;;-9.20;100.00
57050;BME280;42935;50.966;16.992;2022-12-18T16:29:13;103648.45;;;-9.34;100.00
57050;BME280;42935;50.966;16.992;2022-12-18T16:32:22;103656.30;;;-9.35;100.00
57050;BME280;42935;50.966;16.992;2022-12-18T16:35:36;103656.99;;;-9.56;100.00
57050;BME280;42935;50.966;16.992;2022-12-18T16:38:44;103649.59;;;-9.72;100.00
57050;BME280;42935;50.966;16.992;2022-12-18T16:41:48;103654.21;;;-9.81;100.00
57050;BME280;42935;50.966;16.992;2022-12-18T16:44:52;103651.65;;;-9.97;100.00
57050;BME280;42935;50.966;16.992;2022-12-18T16:47:58;103638.74;;;-10.14;100.00
57050;BME280;42935;50.966;16.992;2022-12-18T16:51:05;103655.86;;;-10.09;100.00
57050;BME280;42935;50.966;16.992;2022-12-18T16:54:10;103656.27;;;-10.15;100.00
57050;BME280;42935;50.966;16.992;2022-12-18T16:57:19;103646.45;;;-10.36;100.00
57050;BME280;42935;50.966;16.992;2022-12-18T17:00:26;103652.48;;;-10.40;100.00
57050;BME280;42935;50.966;16.992;2022-12-18T17:03:38;103653.36;;;-10.64;100.00
57050;BME280;42935;50.966;16.992;2022-12-18T17:06:45;103657.48;;;-10.55;100.00
57050;BME280;42935;50.966;16.992;2022-12-18T17:09:55;103673.42;;;-10.56;100.00
57050;BME280;42935;50.966;16.992;2022-12-18T17:12:59;103678.37;;;-10.62;100.00
57050;BME280;42935;50.966;16.992;2022-12-18T17:16:11;103686.74;;;-10.60;100.00
57050;BME280;42935;50.966;16.992;2022-12-18T17:19:23;103673.34;;;-10.82;100.00
57050;BME280;42935;50.966;16.992;2022-12-18T17:22:32;103673.92;;;-10.98;100.00
57050;BME280;42935;50.966;16.992;2022-12-18T17:25:39;103687.45;;;-10.74;100.00
57050;BME280;42935;50.966;16.992;2022-12-18T17:28:43;103685.34;;;-11.00;100.00
57050;BME280;42935;50.966;16.992;2022-12-18T17:31:51;103682.63;;;-11.05;100.00
57050;BME280;42935;50.966;16.992;2022-12-18T17:34:55;103686.78;;;-11.06;100.00
57050;BME280;42935;50.966;16.992;2022-12-18T17:38:01;103668.14;;;-11.35;100.00
57050;BME280;42935;50.966;16.992;2022-12-18T17:41:07;103678.93;;;-11.44;100.00
57050;BME280;42935;50.966;16.992;2022-12-18T17:44:13;103683.13;;;-11.67;100.00
57050;BME280;42935;50.966;16.992;2022-12-18T17:47:18;103686.87;;;-11.72;100.00
57050;BME280;42935;50.966;16.992;2022-12-18T17:50:24;103691.65;;;-11.60;100.00
57050;BME280;42935;50.966;16.992;2022-12-18T17:53:32;103694.55;;;-11.54;100.00
57050;BME280;42935;50.966;16.992;2022-12-18T17:56:38;103680.27;;;-11.50;100.00
57050;BME280;42935;50.966;16.992;2022-12-18T17:59:44;103686.65;;;-11.48;100.00
57050;BME280;42935;50.966;16.992;2022-12-18T18:02:54;103683.64;;;-11.56;100.00
57050;BME280;42935;50.966;16.992;2022-12-18T18:06:08;103680.16;;;-11.63;100.00
57050;BME280;42935;50.966;16.992;2022-12-18T18:09:13;103667.38;;;-11.81;100.00
57050;BME280;42935;50.966;16.992;2022-12-18T18:12:23;103679.06;;;-11.82;100.00
57050;BME280;42935;50.966;16.992;2022-12-18T18:19:13;103665.78;;;-12.38;100.00
57050;BME280;42935;50.966;16.992;2022-12-18T18:22:28;103682.05;;;-12.44;100.00
57050;BME280;42935;50.966;16.992;2022-12-18T18:25:51;103672.80;;;-12.50;100.00
57050;BME280;42935;50.966;16.992;2022-12-18T18:29:06;103669.85;;;-12.68;100.00